createdAt,value
2022-09-23T00:01:09.995Z,11.35
2022-09-23T00:03:39.074Z,11.15
2022-09-23T00:06:10.910Z,11.29
2022-09-23T00:08:38.777Z,10.74
2022-09-23T00:11:10.668Z,11.09
2022-09-23T00:13:38.569Z,10.69
2022-09-23T00:16:08.057Z,10.73
2022-09-23T00:18:35.466Z,10.86
2022-09-23T00:21:06.640Z,11.04
2022-09-23T00:23:34.355Z,10.96
2022-09-23T00:26:02.679Z,10.85
2022-09-23T00:28:30.615Z,11.03
2022-09-23T00:31:03.070Z,11.19
2022-09-23T00:33:30.462Z,10.81
2022-09-23T00:36:05.462Z,10.84
2022-09-23T00:38:34.012Z,11.06
2022-09-23T00:41:17.007Z,10.82
2022-09-23T00:43:52.867Z,10.77
2022-09-23T00:46:37.177Z,10.43
2022-09-23T00:49:14.083Z,10.72
2022-09-23T00:51:44.646Z,10.83
2022-09-23T00:54:11.990Z,10.94
2022-09-23T00:56:39.353Z,10.82
2022-09-23T00:59:07.606Z,10.36
2022-09-23T01:01:35.500Z,10.14
2022-09-23T01:04:02.935Z,10.55
2022-09-23T01:06:30.908Z,10.72
2022-09-23T01:08:58.277Z,10.55
2022-09-23T01:11:50.148Z,10.27
2022-09-23T01:14:38.994Z,10.63
2022-09-23T01:17:08.959Z,10.74
2022-09-23T01:19:36.396Z,10.80
2022-09-23T01:22:19.514Z,10.78
2022-09-23T01:25:09.101Z,10.71
2022-09-23T01:27:43.261Z,10.84
2022-09-23T01:30:11.107Z,10.76
2022-09-23T01:32:54.828Z,10.36
2022-09-23T01:35:34.293Z,10.76
2022-09-23T01:38:16.241Z,10.63
2022-09-23T01:41:05.019Z,10.82
2022-09-23T01:43:53.690Z,10.43
2022-09-23T01:46:25.490Z,10.65
2022-09-23T01:49:12.897Z,10.34
2022-09-23T01:51:46.778Z,10.48
2022-09-23T01:54:17.718Z,10.77
2022-09-23T01:56:53.800Z,10.60
2022-09-23T01:59:40.234Z,10.69
2022-09-23T02:02:16.621Z,10.75
2022-09-23T02:04:45.586Z,10.61
2022-09-23T02:07:32.216Z,10.41
2022-09-23T02:10:14.126Z,10.31
2022-09-23T02:12:42.168Z,10.04
2022-09-23T02:15:11.850Z,10.29
2022-09-23T02:17:42.562Z,10.08
2022-09-23T02:20:10.537Z,10.22
2022-09-23T02:22:44.426Z,10.20
2022-09-23T02:25:12.586Z,10.41
2022-09-23T02:27:44.734Z,10.30
2022-09-23T02:30:17.770Z,10.52
2022-09-23T02:32:58.385Z,10.36
2022-09-23T02:35:37.127Z,10.41
2022-09-23T02:38:12.618Z,10.28
2022-09-23T02:40:54.780Z,10.19
2022-09-23T02:43:36.126Z,10.00
2022-09-23T02:46:04.069Z,10.01
2022-09-23T02:48:53.315Z,9.89
2022-09-23T02:51:21.002Z,10.04
2022-09-23T02:53:48.339Z,9.69
2022-09-23T02:56:20.978Z,9.97
2022-09-23T02:58:49.289Z,9.99
2022-09-23T03:01:41.259Z,9.74
2022-09-23T03:04:27.065Z,10.25
2022-09-23T03:07:22.055Z,10.08
2022-09-23T03:10:04.748Z,9.97
2022-09-23T03:12:52.879Z,10.12
2022-09-23T03:15:36.546Z,10.02
2022-09-23T03:18:15.878Z,9.95
2022-09-23T03:20:50.157Z,9.76
2022-09-23T03:23:23.566Z,9.94
2022-09-23T03:25:54.046Z,10.02
2022-09-23T03:28:22.147Z,9.84
2022-09-23T03:30:51.027Z,10.13
2022-09-23T03:33:19.509Z,10.10
2022-09-23T03:36:13.173Z,9.90
2022-09-23T03:38:43.154Z,9.80
2022-09-23T03:41:12.038Z,10.01
2022-09-23T03:43:39.430Z,9.94
2022-09-23T03:46:08.212Z,9.95
2022-09-23T03:48:35.585Z,9.65
2022-09-23T03:51:18.108Z,9.50
2022-09-23T03:53:45.743Z,9.49
2022-09-23T03:56:13.102Z,9.62
2022-09-23T03:58:40.502Z,9.06
2022-09-23T04:01:08.172Z,7.82
2022-09-23T04:03:35.802Z,8.00
2022-09-23T04:06:03.130Z,9.14
2022-09-23T04:08:30.531Z,9.12
2022-09-23T04:11:01.720Z,9.55
2022-09-23T04:13:29.445Z,9.66
2022-09-23T04:15:56.809Z,9.49
2022-09-23T04:18:24.523Z,9.22
2022-09-23T04:20:51.871Z,9.66
2022-09-23T04:23:19.219Z,9.34
2022-09-23T04:25:49.643Z,9.70
2022-09-23T04:28:16.980Z,9.92
2022-09-23T04:30:46.040Z,9.72
2022-09-23T04:33:13.728Z,9.44
2022-09-23T04:35:43.042Z,9.42
2022-09-23T04:38:13.431Z,9.67
2022-09-23T04:40:41.119Z,9.53
2022-09-23T04:43:13.363Z,9.66
2022-09-23T04:45:41.489Z,9.84
2022-09-23T04:48:10.270Z,10.04
2022-09-23T04:50:37.814Z,10.03
2022-09-23T04:53:05.537Z,10.06
2022-09-23T04:55:32.902Z,9.98
2022-09-23T04:58:00.386Z,10.14
2022-09-23T05:00:28.666Z,10.23
2022-09-23T05:02:56.136Z,10.36
2022-09-23T05:05:24.230Z,10.49
2022-09-23T05:07:51.852Z,10.42
2022-09-23T05:10:19.191Z,10.55
2022-09-23T05:12:46.545Z,10.49
2022-09-23T05:15:15.136Z,10.12
2022-09-23T05:17:43.100Z,10.16
2022-09-23T05:20:11.350Z,10.53
2022-09-23T05:22:38.973Z,10.53
2022-09-23T05:25:06.518Z,10.55
2022-09-23T05:27:33.864Z,10.71
2022-09-23T05:30:01.494Z,11.00
2022-09-23T05:32:28.826Z,11.11
2022-09-23T05:34:56.218Z,10.82
2022-09-23T05:37:25.327Z,10.66
2022-09-23T05:39:52.690Z,10.91
2022-09-23T05:42:20.975Z,10.80
2022-09-23T05:44:48.900Z,10.88
2022-09-23T05:47:16.306Z,11.16
2022-09-23T05:49:59.103Z,10.87
2022-09-23T05:52:27.982Z,10.72
2022-09-23T05:54:55.372Z,11.10
2022-09-23T05:57:22.748Z,11.31
2022-09-23T05:59:50.402Z,11.11
2022-09-23T06:02:17.836Z,11.44
2022-09-23T06:04:45.498Z,11.35
2022-09-23T06:07:12.879Z,11.55
2022-09-23T06:09:42.356Z,11.53
2022-09-23T06:12:09.995Z,11.72
2022-09-23T06:14:37.372Z,11.51
2022-09-23T06:17:05.586Z,11.75
2022-09-23T06:19:33.200Z,11.94
2022-09-23T06:22:00.580Z,12.09
2022-09-23T06:24:31.320Z,12.24
2022-09-23T06:26:59.059Z,12.37
2022-09-23T06:29:26.505Z,12.29
2022-09-23T06:31:53.901Z,12.40
2022-09-23T06:34:21.758Z,11.55
2022-09-23T06:36:49.338Z,11.98
2022-09-23T06:39:16.734Z,12.15
2022-09-23T06:41:45.114Z,11.80
2022-09-23T06:44:13.837Z,12.30
2022-09-23T06:46:41.360Z,12.06
2022-09-23T06:49:09.132Z,11.64
2022-09-23T06:51:36.709Z,12.02
2022-09-23T06:54:04.476Z,12.20
2022-09-23T06:56:36.304Z,12.51
2022-09-23T06:59:05.558Z,12.68
2022-09-23T07:01:34.470Z,12.77
2022-09-23T07:04:02.066Z,13.18
2022-09-23T07:06:29.403Z,12.94
2022-09-23T07:08:57.040Z,13.15
2022-09-23T07:11:24.391Z,13.16
2022-09-23T07:13:51.783Z,13.33
2022-09-23T07:16:19.717Z,13.71
2022-09-23T07:18:47.346Z,13.73
2022-09-23T07:21:18.457Z,13.69
2022-09-23T07:23:47.551Z,13.46
2022-09-23T07:26:15.193Z,13.68
2022-09-23T07:28:42.606Z,13.89
2022-09-23T07:31:12.785Z,13.77
2022-09-23T07:33:41.454Z,13.55
2022-09-23T07:36:13.505Z,13.71
2022-09-23T07:38:45.177Z,13.74
2022-09-23T07:41:17.759Z,13.93
2022-09-23T07:43:46.108Z,14.06
2022-09-23T07:46:16.408Z,14.33
2022-09-23T07:48:44.703Z,14.36
2022-09-23T07:51:36.328Z,13.85
2022-09-23T07:54:10.276Z,14.20
2022-09-23T07:56:38.323Z,14.33
2022-09-23T07:59:08.568Z,14.46
2022-09-23T08:01:41.281Z,14.31
2022-09-23T08:04:12.052Z,13.80
2022-09-23T08:06:43.876Z,13.53
2022-09-23T08:09:11.713Z,14.15
2022-09-23T08:11:42.483Z,13.80
2022-09-23T08:14:10.994Z,14.56
2022-09-23T08:16:39.826Z,14.32
2022-09-23T08:19:07.537Z,14.74
2022-09-23T08:21:34.953Z,14.33
2022-09-23T08:24:02.781Z,14.02
2022-09-23T08:26:30.932Z,14.66
2022-09-23T08:28:58.535Z,14.41
2022-09-23T08:31:27.562Z,13.80
2022-09-23T08:33:56.261Z,14.68
2022-09-23T08:36:24.171Z,15.05
2022-09-23T08:38:51.983Z,15.41
2022-09-23T08:41:37.947Z,14.74
2022-09-23T08:44:16.967Z,15.37
2022-09-23T08:46:48.028Z,15.04
2022-09-23T08:49:21.725Z,14.87
2022-09-23T08:51:49.309Z,15.01
2022-09-23T08:54:17.070Z,15.39
2022-09-23T08:56:45.309Z,15.56
2022-09-23T08:59:15.037Z,15.31
2022-09-23T09:02:45.837Z,15.17
2022-09-23T09:06:27.865Z,15.41
2022-09-23T09:09:27.189Z,15.34
2022-09-23T09:12:16.801Z,15.24
2022-09-23T09:14:57.010Z,16.18
2022-09-23T09:18:03.731Z,15.94
2022-09-23T09:20:41.500Z,16.21
2022-09-23T09:23:23.453Z,16.17
2022-09-23T09:26:01.598Z,15.67
2022-09-23T09:28:43.533Z,16.16
2022-09-23T09:31:42.594Z,16.45
2022-09-23T09:34:34.474Z,16.18
2022-09-23T09:37:18.237Z,16.21
2022-09-23T09:39:46.353Z,16.68
2022-09-23T09:42:23.594Z,16.29
2022-09-23T09:45:01.907Z,16.40
2022-09-23T09:48:00.962Z,16.31
2022-09-23T09:50:49.360Z,16.55
2022-09-23T09:53:21.852Z,16.92
2022-09-23T09:56:11.260Z,16.79
2022-09-23T09:58:54.021Z,16.06
2022-09-23T10:01:31.925Z,16.03
2022-09-23T10:04:18.640Z,16.30
2022-09-23T10:07:03.022Z,16.66
2022-09-23T10:09:33.808Z,16.95
2022-09-23T10:12:21.310Z,16.64
2022-09-23T10:14:51.420Z,17.08
2022-09-23T10:17:28.399Z,17.26
2022-09-23T10:20:01.005Z,17.79
2022-09-23T10:22:47.106Z,17.29
2022-09-23T10:25:20.290Z,17.53
2022-09-23T10:27:47.622Z,17.34
2022-09-23T10:30:15.044Z,16.58
2022-09-23T10:32:45.368Z,17.49
2022-09-23T10:35:23.822Z,17.96
2022-09-23T10:37:55.531Z,17.84
2022-09-23T10:40:56.033Z,18.05
2022-09-23T10:44:07.208Z,18.34
2022-09-23T10:46:41.668Z,17.63
2022-09-23T10:49:31.134Z,17.90
2022-09-23T10:52:22.680Z,18.53
2022-09-23T10:55:17.666Z,17.85
2022-09-23T10:57:44.922Z,17.83
2022-09-23T11:00:27.687Z,18.60
2022-09-23T11:03:18.649Z,18.65
2022-09-23T11:05:58.266Z,17.93
2022-09-23T11:08:59.619Z,18.25
2022-09-23T11:11:46.331Z,18.20
2022-09-23T11:14:32.748Z,18.55
2022-09-23T11:17:24.783Z,18.55
2022-09-23T11:19:56.457Z,18.61
2022-09-23T11:22:45.734Z,18.85
2022-09-23T11:25:40.876Z,18.90
2022-09-23T11:28:42.487Z,18.92
2022-09-23T11:31:37.341Z,19.14
2022-09-23T11:34:30.218Z,19.10
2022-09-23T11:37:12.840Z,19.02
2022-09-23T11:40:03.584Z,19.32
2022-09-23T11:42:33.903Z,17.92
2022-09-23T11:45:13.061Z,17.94
2022-09-23T11:47:46.652Z,18.28
2022-09-23T11:50:47.036Z,18.46
2022-09-23T11:53:45.152Z,18.33
2022-09-23T11:56:33.319Z,18.58
2022-09-23T11:59:19.986Z,18.83
2022-09-23T12:01:55.308Z,18.90
2022-09-23T12:04:52.650Z,18.43
2022-09-23T12:07:25.672Z,18.75
2022-09-23T12:10:03.534Z,17.73
2022-09-23T12:12:52.147Z,18.01
2022-09-23T12:15:27.017Z,18.50
2022-09-23T12:18:04.695Z,18.76
2022-09-23T12:21:08.763Z,19.16
2022-09-23T12:23:53.996Z,18.74
2022-09-23T12:26:23.250Z,19.04
2022-09-23T12:28:52.010Z,19.40
2022-09-23T12:31:21.894Z,19.71
2022-09-23T12:33:53.655Z,20.00
2022-09-23T12:36:34.720Z,19.98
2022-09-23T12:39:06.331Z,19.85
2022-09-23T12:41:38.723Z,18.65
2022-09-23T12:44:15.403Z,19.44
2022-09-23T12:46:45.467Z,19.58
2022-09-23T12:49:28.276Z,19.87
2022-09-23T12:52:10.754Z,19.58
2022-09-23T12:54:39.343Z,19.89
2022-09-23T12:57:32.198Z,20.29
2022-09-23T13:00:13.125Z,20.19
2022-09-23T13:02:46.966Z,20.01
2022-09-23T13:05:40.483Z,20.25
2022-09-23T13:08:18.604Z,20.14
2022-09-23T13:10:54.690Z,20.25
2022-09-23T13:13:29.663Z,20.35
2022-09-23T13:16:12.608Z,19.17
2022-09-23T13:19:04.800Z,20.01
2022-09-23T13:21:44.871Z,20.13
2022-09-23T13:24:28.923Z,19.52
2022-09-23T13:27:00.331Z,19.83
2022-09-23T13:29:38.110Z,20.16
2022-09-23T13:32:06.363Z,20.26
2022-09-23T13:34:34.545Z,19.40
2022-09-23T13:37:22.176Z,18.50
2022-09-23T13:39:50.997Z,18.02
2022-09-23T13:42:38.172Z,18.96
2022-09-23T13:45:06.658Z,19.55
2022-09-23T13:47:34.008Z,18.98
2022-09-23T13:50:02.131Z,18.58
2022-09-23T13:52:31.327Z,18.14
2022-09-23T13:54:58.720Z,18.29
2022-09-23T13:57:27.975Z,18.18
2022-09-23T14:00:21.152Z,17.46
2022-09-23T14:02:48.920Z,16.98
2022-09-23T14:05:27.192Z,17.65
2022-09-23T14:07:55.302Z,17.50
2022-09-23T14:10:28.732Z,17.81
2022-09-23T14:13:00.925Z,17.22
2022-09-23T14:15:32.717Z,17.83
2022-09-23T14:18:06.592Z,18.58
2022-09-23T14:20:50.440Z,18.61
2022-09-23T14:23:20.752Z,17.68
2022-09-23T14:25:49.251Z,18.03
2022-09-23T14:28:19.183Z,17.93
2022-09-23T14:30:51.357Z,18.11
2022-09-23T14:33:27.407Z,17.97
2022-09-23T14:36:07.245Z,17.85
2022-09-23T14:38:51.819Z,18.15
2022-09-23T14:41:23.751Z,18.76
2022-09-23T14:43:54.612Z,18.73
2022-09-23T14:46:23.076Z,18.83
2022-09-23T14:49:11.642Z,18.78
2022-09-23T14:51:49.357Z,18.51
2022-09-23T14:54:44.008Z,18.56
2022-09-23T14:57:38.558Z,18.40
2022-09-23T15:00:18.142Z,18.25
2022-09-23T15:02:57.774Z,17.26
2022-09-23T15:05:45.292Z,17.86
2022-09-23T15:08:15.786Z,17.98
2022-09-23T15:10:43.099Z,17.19
2022-09-23T15:13:22.247Z,16.62
2022-09-23T15:15:53.403Z,16.61
2022-09-23T15:18:25.604Z,17.15
2022-09-23T15:20:54.690Z,16.97
2022-09-23T15:23:50.666Z,16.86
2022-09-23T15:26:39.191Z,16.90
2022-09-23T15:29:09.773Z,16.69
2022-09-23T15:31:37.708Z,16.97
2022-09-23T15:34:10.140Z,17.22
2022-09-23T15:36:38.569Z,17.73
2022-09-23T15:39:07.067Z,17.16
2022-09-23T15:41:34.692Z,17.14
2022-09-23T15:44:11.463Z,17.43
2022-09-23T15:46:39.990Z,17.42
2022-09-23T15:49:15.213Z,17.51
2022-09-23T15:51:43.063Z,17.22
2022-09-23T15:54:13.822Z,17.27
2022-09-23T15:56:41.167Z,17.11
2022-09-23T15:59:08.573Z,17.05
2022-09-23T16:01:36.444Z,17.05
2022-09-23T16:04:04.527Z,17.02
2022-09-23T16:06:32.098Z,16.95
2022-09-23T16:08:59.430Z,16.86
2022-09-23T16:11:33.437Z,16.83
2022-09-23T16:14:00.831Z,16.71
2022-09-23T16:16:28.715Z,16.65
2022-09-23T16:18:56.216Z,16.60
2022-09-23T16:21:24.741Z,16.49
2022-09-23T16:23:53.418Z,16.45
2022-09-23T16:26:22.894Z,16.42
2022-09-23T16:28:51.169Z,16.25
2022-09-23T16:31:19.304Z,16.02
2022-09-23T16:33:47.177Z,16.15
2022-09-23T16:36:28.888Z,16.13
2022-09-23T16:38:56.721Z,15.65
2022-09-23T16:41:24.767Z,15.81
2022-09-23T16:43:52.918Z,15.71
2022-09-23T16:46:20.793Z,15.68
2022-09-23T16:48:52.357Z,15.62
2022-09-23T16:51:21.228Z,15.53
2022-09-23T16:53:49.344Z,15.46
2022-09-23T16:56:17.535Z,15.41
2022-09-23T16:58:44.862Z,15.32
2022-09-23T17:01:39.362Z,15.42
2022-09-23T17:04:07.447Z,15.24
2022-09-23T17:06:35.509Z,14.99
2022-09-23T17:09:03.023Z,15.10
2022-09-23T17:11:33.964Z,15.09
2022-09-23T17:14:01.879Z,15.06
2022-09-23T17:16:30.823Z,15.06
2022-09-23T17:18:58.229Z,14.77
2022-09-23T17:21:26.870Z,14.92
2022-09-23T17:23:55.099Z,14.63
2022-09-23T17:26:23.889Z,14.75
2022-09-23T17:28:51.954Z,14.77
2022-09-23T17:31:19.512Z,14.66
2022-09-23T17:33:46.918Z,14.61
2022-09-23T17:36:14.730Z,14.54
2022-09-23T17:38:45.986Z,14.35
2022-09-23T17:41:13.728Z,14.06
2022-09-23T17:43:41.491Z,14.27
2022-09-23T17:46:18.187Z,14.30
2022-09-23T17:48:45.925Z,14.19
2022-09-23T17:51:15.050Z,13.83
2022-09-23T17:53:45.012Z,14.07
2022-09-23T17:56:20.133Z,14.07
2022-09-23T17:58:48.410Z,13.89
2022-09-23T18:01:18.378Z,13.93
2022-09-23T18:03:46.386Z,13.87
2022-09-23T18:06:13.626Z,13.89
2022-09-23T18:08:41.868Z,13.87
2022-09-23T18:11:22.754Z,13.98
2022-09-23T18:13:51.032Z,13.55
2022-09-23T18:16:19.087Z,13.86
2022-09-23T18:18:53.461Z,13.41
2022-09-23T18:21:21.860Z,13.33
2022-09-23T18:23:49.308Z,13.48
2022-09-23T18:26:17.891Z,13.34
2022-09-23T18:28:45.862Z,13.28
2022-09-23T18:31:18.022Z,13.32
2022-09-23T18:33:52.181Z,13.21
2022-09-23T18:36:23.873Z,13.26
2022-09-23T18:38:52.189Z,13.29
2022-09-23T18:41:19.718Z,13.04
2022-09-23T18:43:48.693Z,13.12
2022-09-23T18:46:18.423Z,12.79
2022-09-23T18:49:04.660Z,13.10
2022-09-23T18:51:32.556Z,13.09
2022-09-23T18:54:00.753Z,13.01
2022-09-23T18:56:39.610Z,12.96
2022-09-23T18:59:14.471Z,12.74
2022-09-23T19:01:42.085Z,12.81
2022-09-23T19:04:09.959Z,12.66
2022-09-23T19:06:37.437Z,12.72
2022-09-23T19:09:05.826Z,13.01
2022-09-23T19:11:36.186Z,12.94
2022-09-23T19:14:08.162Z,12.85
2022-09-23T19:16:37.523Z,13.08
2022-09-23T19:19:05.257Z,12.55
2022-09-23T19:21:33.445Z,12.49
2022-09-23T19:24:03.650Z,12.53
2022-09-23T19:26:38.243Z,12.85
2022-09-23T19:29:08.404Z,12.50
2022-09-23T19:31:39.139Z,12.46
2022-09-23T19:34:11.474Z,12.06
2022-09-23T19:36:39.921Z,12.39
2022-09-23T19:39:21.107Z,12.61
2022-09-23T19:41:49.053Z,12.44
2022-09-23T19:44:17.891Z,12.66
2022-09-23T19:46:46.232Z,12.54
2022-09-23T19:49:13.876Z,12.52
2022-09-23T19:51:41.520Z,12.38
2022-09-23T19:54:09.962Z,11.99
2022-09-23T19:56:38.582Z,12.39
2022-09-23T19:59:09.177Z,12.13
2022-09-23T20:01:36.650Z,12.34
2022-09-23T20:04:04.402Z,12.31
2022-09-23T20:06:33.933Z,12.39
2022-09-23T20:09:01.540Z,12.21
2022-09-23T20:11:29.379Z,11.88
2022-09-23T20:14:02.179Z,11.81
2022-09-23T20:16:32.268Z,11.98
2022-09-23T20:19:00.305Z,12.06
2022-09-23T20:21:28.405Z,11.91
2022-09-23T20:23:56.429Z,12.05
2022-09-23T20:26:42.627Z,11.71
2022-09-23T20:29:11.025Z,11.67
2022-09-23T20:31:40.422Z,11.83
2022-09-23T20:34:08.205Z,11.92
2022-09-23T20:36:36.247Z,11.39
2022-09-23T20:39:05.749Z,11.81
2022-09-23T20:41:36.817Z,11.49
2022-09-23T20:44:06.359Z,11.80
2022-09-23T20:46:34.331Z,11.92
2022-09-23T20:49:02.214Z,11.99
2022-09-23T20:51:32.971Z,11.73
2022-09-23T20:54:00.546Z,11.87
2022-09-23T20:56:28.544Z,11.83
2022-09-23T20:59:00.174Z,11.62
2022-09-23T21:01:27.742Z,11.40
2022-09-23T21:03:55.993Z,11.69
2022-09-23T21:06:25.139Z,11.49
2022-09-23T21:08:53.394Z,11.47
2022-09-23T21:11:20.872Z,11.29
2022-09-23T21:13:49.723Z,11.42
2022-09-23T21:16:18.341Z,11.56
2022-09-23T21:18:45.941Z,11.56
2022-09-23T21:21:14.380Z,11.42
2022-09-23T21:23:41.964Z,11.36
2022-09-23T21:26:13.742Z,11.29
2022-09-23T21:28:48.481Z,11.34
2022-09-23T21:31:23.083Z,11.27
2022-09-23T21:34:02.133Z,11.29
2022-09-23T21:36:39.416Z,11.53
2022-09-23T21:39:07.842Z,11.05
2022-09-23T21:41:35.242Z,11.27
2022-09-23T21:44:04.642Z,11.51
2022-09-23T21:46:35.595Z,11.01
2022-09-23T21:49:03.987Z,10.91
2022-09-23T21:51:38.768Z,11.02
2022-09-23T21:54:16.040Z,11.24
2022-09-23T21:56:43.891Z,11.08
2022-09-23T21:59:11.315Z,11.07
2022-09-23T22:01:40.960Z,11.10
2022-09-23T22:04:16.923Z,11.37
2022-09-23T22:06:44.577Z,11.37
2022-09-23T22:09:14.131Z,10.80
2022-09-23T22:12:00.340Z,10.84
2022-09-23T22:14:28.101Z,11.32
2022-09-23T22:16:57.329Z,10.85
2022-09-23T22:19:35.318Z,11.07
2022-09-23T22:22:08.257Z,11.30
2022-09-23T22:24:35.601Z,10.88
2022-09-23T22:27:03.232Z,11.25
2022-09-23T22:29:49.150Z,10.96
2022-09-23T22:32:35.543Z,11.21
2022-09-23T22:35:03.182Z,11.42
2022-09-23T22:37:35.036Z,11.10
2022-09-23T22:40:06.434Z,11.23
2022-09-23T22:42:34.638Z,11.11
2022-09-23T22:45:05.150Z,11.21
2022-09-23T22:47:37.639Z,11.19
2022-09-23T22:50:06.529Z,11.16
2022-09-23T22:52:34.211Z,11.03
2022-09-23T22:55:01.607Z,10.70
2022-09-23T22:57:29.225Z,10.76
2022-09-23T22:59:56.555Z,10.26
2022-09-23T23:02:24.015Z,10.66
2022-09-23T23:04:51.636Z,10.35
2022-09-23T23:07:22.925Z,10.80
2022-09-23T23:09:50.495Z,10.65
2022-09-23T23:12:20.157Z,10.41
2022-09-23T23:14:48.278Z,10.35
2022-09-23T23:17:15.746Z,10.13
2022-09-23T23:19:43.429Z,10.68
2022-09-23T23:22:10.731Z,10.50
2022-09-23T23:24:38.085Z,10.61
2022-09-23T23:27:05.667Z,10.62
2022-09-23T23:29:33.138Z,10.49
2022-09-23T23:32:00.626Z,10.67
2022-09-23T23:34:28.249Z,10.79
2022-09-23T23:36:55.828Z,10.75
2022-09-23T23:39:23.838Z,10.78
2022-09-23T23:41:53.284Z,10.77
2022-09-23T23:44:20.677Z,10.89
2022-09-23T23:46:49.107Z,10.50
2022-09-23T23:49:16.859Z,10.62
2022-09-23T23:51:44.481Z,10.55
2022-09-23T23:54:12.292Z,10.65
2022-09-23T23:56:39.879Z,10.16
2022-09-23T23:59:07.180Z,10.36
